sensor_id;sensor_type;location;lat;lon;timestamp;P1;durP1;ratioP1;P2;durP2;ratioP2
6834;SDS011;3455;42.150;24.734;2022-11-18T00:01:06;105.37;;;44.53;;
6834;SDS011;3455;42.150;24.734;2022-11-18T00:03:34;137.67;;;46.50;;
6834;SDS011;3455;42.150;24.734;2022-11-18T00:06:01;104.23;;;44.70;;
6834;SDS011;3455;42.150;24.734;2022-11-18T00:08:28;149.93;;;47.47;;
6834;SDS011;3455;42.150;24.734;2022-11-18T00:10:56;132.13;;;47.33;;
6834;SDS011;3455;42.150;24.734;2022-11-18T00:13:23;112.30;;;46.33;;
6834;SDS011;3455;42.150;24.734;2022-11-18T00:16:08;134.57;;;48.50;;
6834;SDS011;3455;42.150;24.734;2022-11-18T00:18:36;177.70;;;47.27;;
6834;SDS011;3455;42.150;24.734;2022-11-18T00:21:04;134.20;;;46.03;;
6834;SDS011;3455;42.150;24.734;2022-11-18T00:23:32;139.50;;;47.30;;
6834;SDS011;3455;42.150;24.734;2022-11-18T00:26:04;135.47;;;42.87;;
6834;SDS011;3455;42.150;24.734;2022-11-18T00:28:32;150.70;;;44.43;;
6834;SDS011;3455;42.150;24.734;2022-11-18T00:31:00;116.10;;;45.50;;
6834;SDS011;3455;42.150;24.734;2022-11-18T00:33:27;86.33;;;42.67;;
6834;SDS011;3455;42.150;24.734;2022-11-18T00:35:54;151.07;;;43.87;;
6834;SDS011;3455;42.150;24.734;2022-11-18T00:38:21;218.53;;;47.27;;
6834;SDS011;3455;42.150;24.734;2022-11-18T00:40:48;154.93;;;42.13;;
6834;SDS011;3455;42.150;24.734;2022-11-18T00:43:16;145.53;;;44.17;;
6834;SDS011;3455;42.150;24.734;2022-11-18T00:45:42;220.10;;;45.03;;
6834;SDS011;3455;42.150;24.734;2022-11-18T00:48:09;274.93;;;47.17;;
6834;SDS011;3455;42.150;24.734;2022-11-18T00:50:35;367.10;;;51.23;;
6834;SDS011;3455;42.150;24.734;2022-11-18T00:53:02;319.10;;;49.10;;
6834;SDS011;3455;42.150;24.734;2022-11-18T00:55:29;169.67;;;45.23;;
6834;SDS011;3455;42.150;24.734;2022-11-18T00:57:55;273.40;;;48.63;;
6834;SDS011;3455;42.150;24.734;2022-11-18T01:00:24;261.87;;;46.67;;
6834;SDS011;3455;42.150;24.734;2022-11-18T01:02:50;145.33;;;42.63;;
6834;SDS011;3455;42.150;24.734;2022-11-18T01:05:17;108.27;;;41.93;;
6834;SDS011;3455;42.150;24.734;2022-11-18T01:07:44;75.37;;;39.90;;
6834;SDS011;3455;42.150;24.734;2022-11-18T01:10:11;124.53;;;43.30;;
6834;SDS011;3455;42.150;24.734;2022-11-18T01:12:37;154.07;;;44.30;;
6834;SDS011;3455;42.150;24.734;2022-11-18T01:15:22;206.20;;;45.80;;
6834;SDS011;3455;42.150;24.734;2022-11-18T01:17:50;89.50;;;41.83;;
6834;SDS011;3455;42.150;24.734;2022-11-18T01:20:16;144.87;;;44.40;;
6834;SDS011;3455;42.150;24.734;2022-11-18T01:22:43;181.20;;;43.37;;
6834;SDS011;3455;42.150;24.734;2022-11-18T01:25:10;253.23;;;44.73;;
6834;SDS011;3455;42.150;24.734;2022-11-18T01:27:37;236.70;;;45.00;;
6834;SDS011;3455;42.150;24.734;2022-11-18T01:30:05;151.97;;;42.80;;
6834;SDS011;3455;42.150;24.734;2022-11-18T01:32:34;191.13;;;42.17;;
6834;SDS011;3455;42.150;24.734;2022-11-18T01:35:00;285.70;;;46.03;;
6834;SDS011;3455;42.150;24.734;2022-11-18T01:37:27;286.50;;;47.33;;
6834;SDS011;3455;42.150;24.734;2022-11-18T01:39:54;274.37;;;43.43;;
6834;SDS011;3455;42.150;24.734;2022-11-18T01:42:20;303.43;;;45.20;;
6834;SDS011;3455;42.150;24.734;2022-11-18T01:45:04;251.83;;;43.03;;
6834;SDS011;3455;42.150;24.734;2022-11-18T01:47:42;425.73;;;48.83;;
6834;SDS011;3455;42.150;24.734;2022-11-18T01:50:15;156.53;;;38.77;;
6834;SDS011;3455;42.150;24.734;2022-11-18T01:52:45;317.80;;;42.43;;
6834;SDS011;3455;42.150;24.734;2022-11-18T01:55:13;334.87;;;45.13;;
6834;SDS011;3455;42.150;24.734;2022-11-18T01:57:43;309.87;;;46.30;;
6834;SDS011;3455;42.150;24.734;2022-11-18T02:00:15;455.23;;;51.97;;
6834;SDS011;3455;42.150;24.734;2022-11-18T02:02:43;264.50;;;44.53;;
6834;SDS011;3455;42.150;24.734;2022-11-18T02:05:11;214.83;;;41.70;;
6834;SDS011;3455;42.150;24.734;2022-11-18T02:14:22;217.00;;;41.27;;
6834;SDS011;3455;42.150;24.734;2022-11-18T02:16:57;376.63;;;48.37;;
6834;SDS011;3455;42.150;24.734;2022-11-18T02:26:00;181.30;;;41.17;;
6834;SDS011;3455;42.150;24.734;2022-11-18T02:31:34;430.63;;;48.43;;
6834;SDS011;3455;42.150;24.734;2022-11-18T02:34:13;477.33;;;51.03;;
6834;SDS011;3455;42.150;24.734;2022-11-18T02:36:48;333.97;;;44.23;;
6834;SDS011;3455;42.150;24.734;2022-11-18T02:39:19;433.63;;;46.10;;
6834;SDS011;3455;42.150;24.734;2022-11-18T02:41:50;270.60;;;40.10;;
6834;SDS011;3455;42.150;24.734;2022-11-18T02:44:21;138.87;;;33.60;;
6834;SDS011;3455;42.150;24.734;2022-11-18T02:46:52;269.53;;;38.17;;
6834;SDS011;3455;42.150;24.734;2022-11-18T02:52:44;377.47;;;40.17;;
6834;SDS011;3455;42.150;24.734;2022-11-18T02:58:35;309.43;;;38.27;;
6834;SDS011;3455;42.150;24.734;2022-11-18T03:01:03;176.60;;;33.60;;
6834;SDS011;3455;42.150;24.734;2022-11-18T03:03:30;353.77;;;38.33;;
6834;SDS011;3455;42.150;24.734;2022-11-18T03:09:21;343.23;;;37.90;;
6834;SDS011;3455;42.150;24.734;2022-11-18T03:15:15;289.57;;;35.57;;
6834;SDS011;3455;42.150;24.734;2022-11-18T03:18:00;72.47;;;27.37;;
6834;SDS011;3455;42.150;24.734;2022-11-18T03:20:33;120.57;;;29.67;;
6834;SDS011;3455;42.150;24.734;2022-11-18T03:23:05;207.07;;;32.27;;
6834;SDS011;3455;42.150;24.734;2022-11-18T03:25:40;236.60;;;30.07;;
6834;SDS011;3455;42.150;24.734;2022-11-18T03:28:11;210.67;;;32.37;;
6834;SDS011;3455;42.150;24.734;2022-11-18T03:30:42;101.43;;;30.10;;
6834;SDS011;3455;42.150;24.734;2022-11-18T03:33:15;148.63;;;32.23;;
6834;SDS011;3455;42.150;24.734;2022-11-18T03:35:48;166.50;;;32.93;;
6834;SDS011;3455;42.150;24.734;2022-11-18T03:38:20;147.10;;;32.27;;
6834;SDS011;3455;42.150;24.734;2022-11-18T03:40:53;123.77;;;31.17;;
6834;SDS011;3455;42.150;24.734;2022-11-18T03:43:24;165.27;;;34.30;;
6834;SDS011;3455;42.150;24.734;2022-11-18T03:45:55;219.53;;;36.83;;
6834;SDS011;3455;42.150;24.734;2022-11-18T03:48:29;168.60;;;35.10;;
6834;SDS011;3455;42.150;24.734;2022-11-18T03:51:01;228.10;;;39.43;;
6834;SDS011;3455;42.150;24.734;2022-11-18T03:53:33;224.27;;;42.23;;
6834;SDS011;3455;42.150;24.734;2022-11-18T03:56:04;160.20;;;38.77;;
6834;SDS011;3455;42.150;24.734;2022-11-18T04:04:48;235.90;;;40.40;;
6834;SDS011;3455;42.150;24.734;2022-11-18T04:07:18;267.80;;;40.03;;
6834;SDS011;3455;42.150;24.734;2022-11-18T04:09:50;355.03;;;46.43;;
6834;SDS011;3455;42.150;24.734;2022-11-18T04:12:21;173.97;;;36.60;;
6834;SDS011;3455;42.150;24.734;2022-11-18T04:14:50;203.13;;;36.37;;
6834;SDS011;3455;42.150;24.734;2022-11-18T04:17:20;264.87;;;41.67;;
6834;SDS011;3455;42.150;24.734;2022-11-18T04:26:39;234.60;;;38.93;;
6834;SDS011;3455;42.150;24.734;2022-11-18T04:29:05;194.47;;;39.60;;
6834;SDS011;3455;42.150;24.734;2022-11-18T04:31:32;160.33;;;37.50;;
6834;SDS011;3455;42.150;24.734;2022-11-18T04:33:59;111.53;;;34.90;;
6834;SDS011;3455;42.150;24.734;2022-11-18T04:36:25;134.80;;;37.33;;
6834;SDS011;3455;42.150;24.734;2022-11-18T04:38:52;195.93;;;39.57;;
6834;SDS011;3455;42.150;24.734;2022-11-18T04:41:19;210.10;;;37.40;;
6834;SDS011;3455;42.150;24.734;2022-11-18T04:44:07;340.83;;;44.63;;
6834;SDS011;3455;42.150;24.734;2022-11-18T04:46:37;152.90;;;38.43;;
6834;SDS011;3455;42.150;24.734;2022-11-18T04:49:05;215.97;;;39.43;;
6834;SDS011;3455;42.150;24.734;2022-11-18T04:51:31;231.27;;;40.63;;
6834;SDS011;3455;42.150;24.734;2022-11-18T04:53:58;232.43;;;41.30;;
6834;SDS011;3455;42.150;24.734;2022-11-18T04:56:25;310.37;;;43.93;;
6834;SDS011;3455;42.150;24.734;2022-11-18T04:58:51;223.80;;;41.93;;
6834;SDS011;3455;42.150;24.734;2022-11-18T05:01:19;292.80;;;45.23;;
6834;SDS011;3455;42.150;24.734;2022-11-18T05:03:46;401.40;;;47.67;;
6834;SDS011;3455;42.150;24.734;2022-11-18T05:06:13;275.10;;;40.73;;
6834;SDS011;3455;42.150;24.734;2022-11-18T05:08:40;393.27;;;44.07;;
6834;SDS011;3455;42.150;24.734;2022-11-18T05:11:07;311.53;;;40.97;;
6834;SDS011;3455;42.150;24.734;2022-11-18T05:13:48;215.67;;;39.03;;
6834;SDS011;3455;42.150;24.734;2022-11-18T05:16:16;374.70;;;43.67;;
6834;SDS011;3455;42.150;24.734;2022-11-18T05:18:44;266.47;;;39.37;;
6834;SDS011;3455;42.150;24.734;2022-11-18T05:21:11;341.77;;;42.63;;
6834;SDS011;3455;42.150;24.734;2022-11-18T05:23:37;305.90;;;41.27;;
6834;SDS011;3455;42.150;24.734;2022-11-18T05:26:04;217.03;;;39.87;;
6834;SDS011;3455;42.150;24.734;2022-11-18T05:28:32;182.93;;;37.63;;
6834;SDS011;3455;42.150;24.734;2022-11-18T05:30:59;192.50;;;39.23;;
6834;SDS011;3455;42.150;24.734;2022-11-18T05:33:31;223.20;;;39.40;;
6834;SDS011;3455;42.150;24.734;2022-11-18T05:36:02;229.70;;;41.53;;
6834;SDS011;3455;42.150;24.734;2022-11-18T05:38:30;199.33;;;39.83;;
6834;SDS011;3455;42.150;24.734;2022-11-18T05:40:57;334.07;;;45.63;;
6834;SDS011;3455;42.150;24.734;2022-11-18T05:43:24;362.43;;;45.87;;
6834;SDS011;3455;42.150;24.734;2022-11-18T05:45:50;335.53;;;46.40;;
6834;SDS011;3455;42.150;24.734;2022-11-18T05:48:18;157.03;;;40.37;;
6834;SDS011;3455;42.150;24.734;2022-11-18T05:50:45;461.73;;;50.53;;
6834;SDS011;3455;42.150;24.734;2022-11-18T05:53:14;276.90;;;44.57;;
6834;SDS011;3455;42.150;24.734;2022-11-18T05:55:45;390.77;;;47.80;;
6834;SDS011;3455;42.150;24.734;2022-11-18T05:58:16;421.57;;;49.57;;
6834;SDS011;3455;42.150;24.734;2022-11-18T06:00:43;199.10;;;41.60;;
6834;SDS011;3455;42.150;24.734;2022-11-18T06:03:18;152.30;;;39.20;;
6834;SDS011;3455;42.150;24.734;2022-11-18T06:05:48;286.87;;;43.60;;
6834;SDS011;3455;42.150;24.734;2022-11-18T06:08:19;299.13;;;44.33;;
6834;SDS011;3455;42.150;24.734;2022-11-18T06:10:48;325.83;;;47.33;;
6834;SDS011;3455;42.150;24.734;2022-11-18T06:13:16;229.33;;;40.70;;
6834;SDS011;3455;42.150;24.734;2022-11-18T06:15:47;195.90;;;38.50;;
6834;SDS011;3455;42.150;24.734;2022-11-18T06:18:16;284.07;;;43.87;;
6834;SDS011;3455;42.150;24.734;2022-11-18T06:20:47;260.43;;;40.60;;
6834;SDS011;3455;42.150;24.734;2022-11-18T06:23:15;216.87;;;37.73;;
6834;SDS011;3455;42.150;24.734;2022-11-18T06:25:44;190.63;;;42.60;;
6834;SDS011;3455;42.150;24.734;2022-11-18T06:28:11;76.57;;;36.33;;
6834;SDS011;3455;42.150;24.734;2022-11-18T06:30:40;114.70;;;36.00;;
6834;SDS011;3455;42.150;24.734;2022-11-18T06:33:07;83.83;;;35.70;;
6834;SDS011;3455;42.150;24.734;2022-11-18T06:35:34;133.00;;;38.60;;
6834;SDS011;3455;42.150;24.734;2022-11-18T06:38:00;164.10;;;37.97;;
6834;SDS011;3455;42.150;24.734;2022-11-18T06:40:27;162.30;;;36.93;;
6834;SDS011;3455;42.150;24.734;2022-11-18T06:42:55;204.07;;;38.03;;
6834;SDS011;3455;42.150;24.734;2022-11-18T06:45:39;173.17;;;36.37;;
6834;SDS011;3455;42.150;24.734;2022-11-18T06:48:26;146.37;;;40.90;;
6834;SDS011;3455;42.150;24.734;2022-11-18T06:50:53;134.47;;;40.30;;
6834;SDS011;3455;42.150;24.734;2022-11-18T06:56:41;93.73;;;36.03;;
6834;SDS011;3455;42.150;24.734;2022-11-18T06:59:10;112.00;;;36.70;;
6834;SDS011;3455;42.150;24.734;2022-11-18T07:01:38;177.37;;;40.13;;
6834;SDS011;3455;42.150;24.734;2022-11-18T07:04:06;92.63;;;36.67;;
6834;SDS011;3455;42.150;24.734;2022-11-18T07:06:34;191.93;;;38.70;;
6834;SDS011;3455;42.150;24.734;2022-11-18T07:09:04;104.70;;;36.73;;
6834;SDS011;3455;42.150;24.734;2022-11-18T07:11:32;162.07;;;35.87;;
6834;SDS011;3455;42.150;24.734;2022-11-18T07:13:59;213.70;;;39.37;;
6834;SDS011;3455;42.150;24.734;2022-11-18T07:16:28;118.60;;;34.93;;
6834;SDS011;3455;42.150;24.734;2022-11-18T07:18:55;157.40;;;34.57;;
6834;SDS011;3455;42.150;24.734;2022-11-18T07:21:22;112.43;;;34.53;;
6834;SDS011;3455;42.150;24.734;2022-11-18T07:23:50;117.90;;;33.93;;
6834;SDS011;3455;42.150;24.734;2022-11-18T07:26:17;88.30;;;36.17;;
6834;SDS011;3455;42.150;24.734;2022-11-18T07:28:45;111.43;;;36.27;;
6834;SDS011;3455;42.150;24.734;2022-11-18T07:31:12;119.13;;;33.33;;
6834;SDS011;3455;42.150;24.734;2022-11-18T07:33:42;113.97;;;34.07;;
6834;SDS011;3455;42.150;24.734;2022-11-18T07:36:10;85.90;;;33.87;;
6834;SDS011;3455;42.150;24.734;2022-11-18T07:38:39;82.10;;;28.77;;
6834;SDS011;3455;42.150;24.734;2022-11-18T07:41:06;87.20;;;30.30;;
6834;SDS011;3455;42.150;24.734;2022-11-18T07:43:35;110.43;;;29.77;;
6834;SDS011;3455;42.150;24.734;2022-11-18T07:46:09;69.70;;;28.57;;
6834;SDS011;3455;42.150;24.734;2022-11-18T07:48:37;70.73;;;29.10;;
6834;SDS011;3455;42.150;24.734;2022-11-18T07:51:06;57.90;;;30.00;;
6834;SDS011;3455;42.150;24.734;2022-11-18T07:53:34;55.60;;;26.93;;
6834;SDS011;3455;42.150;24.734;2022-11-18T07:56:01;47.53;;;26.00;;
6834;SDS011;3455;42.150;24.734;2022-11-18T07:58:29;59.73;;;24.27;;
6834;SDS011;3455;42.150;24.734;2022-11-18T08:00:56;62.13;;;23.63;;
6834;SDS011;3455;42.150;24.734;2022-11-18T08:03:24;59.60;;;23.97;;
6834;SDS011;3455;42.150;24.734;2022-11-18T08:05:52;59.87;;;24.53;;
6834;SDS011;3455;42.150;24.734;2022-11-18T08:08:20;52.33;;;21.77;;
6834;SDS011;3455;42.150;24.734;2022-11-18T08:10:47;66.40;;;24.43;;
6834;SDS011;3455;42.150;24.734;2022-11-18T08:13:14;53.77;;;23.80;;
6834;SDS011;3455;42.150;24.734;2022-11-18T08:15:40;50.03;;;23.60;;
6834;SDS011;3455;42.150;24.734;2022-11-18T08:18:08;40.83;;;23.87;;
6834;SDS011;3455;42.150;24.734;2022-11-18T08:20:34;44.27;;;25.23;;
6834;SDS011;3455;42.150;24.734;2022-11-18T08:23:01;39.43;;;22.60;;
6834;SDS011;3455;42.150;24.734;2022-11-18T08:25:30;44.63;;;28.10;;
6834;SDS011;3455;42.150;24.734;2022-11-18T08:27:56;47.53;;;25.97;;
6834;SDS011;3455;42.150;24.734;2022-11-18T08:33:45;50.10;;;24.83;;
6834;SDS011;3455;42.150;24.734;2022-11-18T08:36:13;46.20;;;26.03;;
6834;SDS011;3455;42.150;24.734;2022-11-18T08:42:04;42.77;;;25.23;;
6834;SDS011;3455;42.150;24.734;2022-11-18T08:44:30;49.37;;;26.10;;
6834;SDS011;3455;42.150;24.734;2022-11-18T08:46:58;43.40;;;27.00;;
6834;SDS011;3455;42.150;24.734;2022-11-18T08:49:25;40.77;;;25.40;;
6834;SDS011;3455;42.150;24.734;2022-11-18T08:51:52;44.77;;;26.00;;
6834;SDS011;3455;42.150;24.734;2022-11-18T08:54:18;44.57;;;25.67;;
6834;SDS011;3455;42.150;24.734;2022-11-18T09:00:09;41.83;;;27.47;;
6834;SDS011;3455;42.150;24.734;2022-11-18T09:02:37;46.30;;;26.47;;
6834;SDS011;3455;42.150;24.734;2022-11-18T09:05:04;44.63;;;29.43;;
6834;SDS011;3455;42.150;24.734;2022-11-18T09:07:31;45.37;;;27.70;;
6834;SDS011;3455;42.150;24.734;2022-11-18T09:13:19;50.00;;;30.33;;
6834;SDS011;3455;42.150;24.734;2022-11-18T09:15:47;52.50;;;29.87;;
6834;SDS011;3455;42.150;24.734;2022-11-18T09:18:14;39.93;;;27.60;;
6834;SDS011;3455;42.150;24.734;2022-11-18T09:20:41;45.87;;;29.67;;
6834;SDS011;3455;42.150;24.734;2022-11-18T09:23:08;48.30;;;32.07;;
6834;SDS011;3455;42.150;24.734;2022-11-18T09:25:34;50.97;;;33.97;;
6834;SDS011;3455;42.150;24.734;2022-11-18T09:28:01;54.17;;;33.60;;
6834;SDS011;3455;42.150;24.734;2022-11-18T09:30:28;55.43;;;35.53;;
6834;SDS011;3455;42.150;24.734;2022-11-18T09:32:56;59.90;;;36.10;;
6834;SDS011;3455;42.150;24.734;2022-11-18T09:35:23;62.00;;;36.20;;
6834;SDS011;3455;42.150;24.734;2022-11-18T09:37:50;66.57;;;37.27;;
6834;SDS011;3455;42.150;24.734;2022-11-18T09:40:17;67.53;;;41.30;;
6834;SDS011;3455;42.150;24.734;2022-11-18T09:42:48;80.60;;;39.83;;
6834;SDS011;3455;42.150;24.734;2022-11-18T09:45:22;66.17;;;39.87;;
6834;SDS011;3455;42.150;24.734;2022-11-18T09:47:54;63.80;;;41.00;;
6834;SDS011;3455;42.150;24.734;2022-11-18T09:50:25;62.40;;;38.60;;
6834;SDS011;3455;42.150;24.734;2022-11-18T09:52:54;64.70;;;39.40;;
6834;SDS011;3455;42.150;24.734;2022-11-18T09:58:50;75.67;;;41.57;;
6834;SDS011;3455;42.150;24.734;2022-11-18T10:01:18;69.47;;;41.93;;
6834;SDS011;3455;42.150;24.734;2022-11-18T10:07:12;76.03;;;44.93;;
6834;SDS011;3455;42.150;24.734;2022-11-18T10:09:43;75.53;;;46.03;;
6834;SDS011;3455;42.150;24.734;2022-11-18T10:12:15;78.57;;;46.60;;
6834;SDS011;3455;42.150;24.734;2022-11-18T10:18:15;83.47;;;48.67;;
6834;SDS011;3455;42.150;24.734;2022-11-18T10:20:52;80.17;;;47.43;;
6834;SDS011;3455;42.150;24.734;2022-11-18T10:23:27;78.03;;;44.87;;
6834;SDS011;3455;42.150;24.734;2022-11-18T10:25:58;82.57;;;45.23;;
6834;SDS011;3455;42.150;24.734;2022-11-18T10:28:25;71.57;;;44.90;;
6834;SDS011;3455;42.150;24.734;2022-11-18T10:34:15;66.03;;;39.63;;
6834;SDS011;3455;42.150;24.734;2022-11-18T10:36:44;59.73;;;38.43;;
6834;SDS011;3455;42.150;24.734;2022-11-18T10:39:25;59.13;;;38.57;;
6834;SDS011;3455;42.150;24.734;2022-11-18T10:41:52;63.77;;;37.87;;
6834;SDS011;3455;42.150;24.734;2022-11-18T10:47:49;60.67;;;36.27;;
6834;SDS011;3455;42.150;24.734;2022-11-18T10:50:27;62.90;;;37.30;;
6834;SDS011;3455;42.150;24.734;2022-11-18T10:52:56;72.57;;;36.43;;
6834;SDS011;3455;42.150;24.734;2022-11-18T10:55:25;64.40;;;36.13;;
6834;SDS011;3455;42.150;24.734;2022-11-18T10:57:53;64.03;;;38.83;;
6834;SDS011;3455;42.150;24.734;2022-11-18T11:00:33;68.13;;;37.43;;
6834;SDS011;3455;42.150;24.734;2022-11-18T11:03:14;59.43;;;34.47;;
6834;SDS011;3455;42.150;24.734;2022-11-18T11:05:47;64.27;;;36.30;;
6834;SDS011;3455;42.150;24.734;2022-11-18T11:08:17;68.00;;;38.00;;
6834;SDS011;3455;42.150;24.734;2022-11-18T11:10:53;65.73;;;37.40;;
6834;SDS011;3455;42.150;24.734;2022-11-18T11:13:21;74.40;;;39.43;;
6834;SDS011;3455;42.150;24.734;2022-11-18T11:15:50;76.90;;;40.47;;
6834;SDS011;3455;42.150;24.734;2022-11-18T11:18:21;75.17;;;43.03;;
6834;SDS011;3455;42.150;24.734;2022-11-18T11:21:09;82.40;;;44.23;;
6834;SDS011;3455;42.150;24.734;2022-11-18T11:23:37;86.97;;;44.50;;
6834;SDS011;3455;42.150;24.734;2022-11-18T11:26:06;83.73;;;45.20;;
6834;SDS011;3455;42.150;24.734;2022-11-18T11:28:44;86.63;;;47.87;;
6834;SDS011;3455;42.150;24.734;2022-11-18T11:31:20;79.77;;;45.40;;
6834;SDS011;3455;42.150;24.734;2022-11-18T11:33:53;89.77;;;47.50;;
6834;SDS011;3455;42.150;24.734;2022-11-18T11:36:29;85.73;;;47.47;;
6834;SDS011;3455;42.150;24.734;2022-11-18T11:39:07;79.53;;;44.27;;
6834;SDS011;3455;42.150;24.734;2022-11-18T11:41:55;68.27;;;39.20;;
6834;SDS011;3455;42.150;24.734;2022-11-18T11:44:34;70.07;;;42.33;;
6834;SDS011;3455;42.150;24.734;2022-11-18T11:47:14;66.80;;;42.17;;
6834;SDS011;3455;42.150;24.734;2022-11-18T11:53:45;62.40;;;40.83;;
6834;SDS011;3455;42.150;24.734;2022-11-18T11:56:22;68.63;;;42.87;;
6834;SDS011;3455;42.150;24.734;2022-11-18T11:59:09;65.30;;;42.40;;
6834;SDS011;3455;42.150;24.734;2022-11-18T12:01:46;77.73;;;46.27;;
6834;SDS011;3455;42.150;24.734;2022-11-18T12:07:45;61.60;;;40.17;;
6834;SDS011;3455;42.150;24.734;2022-11-18T12:10:21;67.30;;;42.77;;
6834;SDS011;3455;42.150;24.734;2022-11-18T12:16:26;60.07;;;39.87;;
6834;SDS011;3455;42.150;24.734;2022-11-18T12:18:57;73.50;;;42.73;;
6834;SDS011;3455;42.150;24.734;2022-11-18T12:24:32;63.03;;;39.10;;
6834;SDS011;3455;42.150;24.734;2022-11-18T12:30:22;69.50;;;38.73;;
6834;SDS011;3455;42.150;24.734;2022-11-18T12:32:53;60.93;;;39.80;;
6834;SDS011;3455;42.150;24.734;2022-11-18T12:35:22;68.07;;;42.23;;
6834;SDS011;3455;42.150;24.734;2022-11-18T12:44:30;66.37;;;44.27;;
6834;SDS011;3455;42.150;24.734;2022-11-18T12:46:57;67.30;;;44.70;;
6834;SDS011;3455;42.150;24.734;2022-11-18T12:52:48;70.17;;;41.70;;
6834;SDS011;3455;42.150;24.734;2022-11-18T12:55:20;66.43;;;41.83;;
6834;SDS011;3455;42.150;24.734;2022-11-18T12:57:51;78.23;;;41.93;;
6834;SDS011;3455;42.150;24.734;2022-11-18T13:00:27;63.90;;;40.07;;
6834;SDS011;3455;42.150;24.734;2022-11-18T13:06:20;72.43;;;44.40;;
6834;SDS011;3455;42.150;24.734;2022-11-18T13:08:54;66.83;;;43.10;;
6834;SDS011;3455;42.150;24.734;2022-11-18T13:11:23;71.37;;;43.90;;
6834;SDS011;3455;42.150;24.734;2022-11-18T13:14:11;69.33;;;44.67;;
6834;SDS011;3455;42.150;24.734;2022-11-18T13:16:58;85.30;;;48.30;;
6834;SDS011;3455;42.150;24.734;2022-11-18T13:19:42;72.23;;;45.87;;
6834;SDS011;3455;42.150;24.734;2022-11-18T13:22:14;79.87;;;47.67;;
6834;SDS011;3455;42.150;24.734;2022-11-18T13:25:20;90.03;;;49.80;;
6834;SDS011;3455;42.150;24.734;2022-11-18T13:31:11;92.97;;;50.70;;
6834;SDS011;3455;42.150;24.734;2022-11-18T13:33:44;97.40;;;51.53;;
6834;SDS011;3455;42.150;24.734;2022-11-18T13:36:14;93.20;;;51.37;;
6834;SDS011;3455;42.150;24.734;2022-11-18T13:38:53;88.73;;;49.87;;
6834;SDS011;3455;42.150;24.734;2022-11-18T13:41:22;93.53;;;50.20;;
6834;SDS011;3455;42.150;24.734;2022-11-18T13:44:08;93.73;;;52.77;;
6834;SDS011;3455;42.150;24.734;2022-11-18T13:46:36;98.23;;;51.13;;
6834;SDS011;3455;42.150;24.734;2022-11-18T13:49:05;86.73;;;50.67;;
6834;SDS011;3455;42.150;24.734;2022-11-18T13:51:32;90.23;;;51.00;;
6834;SDS011;3455;42.150;24.734;2022-11-18T13:53:59;98.03;;;51.20;;
6834;SDS011;3455;42.150;24.734;2022-11-18T13:56:27;97.23;;;52.50;;
6834;SDS011;3455;42.150;24.734;2022-11-18T13:58:57;102.00;;;52.13;;
6834;SDS011;3455;42.150;24.734;2022-11-18T14:01:26;99.90;;;52.80;;
6834;SDS011;3455;42.150;24.734;2022-11-18T14:03:56;100.13;;;51.40;;
6834;SDS011;3455;42.150;24.734;2022-11-18T14:06:25;90.93;;;50.53;;
6834;SDS011;3455;42.150;24.734;2022-11-18T14:09:05;103.10;;;51.77;;
6834;SDS011;3455;42.150;24.734;2022-11-18T14:11:43;105.67;;;51.30;;
6834;SDS011;3455;42.150;24.734;2022-11-18T14:14:11;100.63;;;50.13;;
6834;SDS011;3455;42.150;24.734;2022-11-18T14:16:53;113.30;;;53.43;;
6834;SDS011;3455;42.150;24.734;2022-11-18T14:19:30;112.53;;;52.77;;
6834;SDS011;3455;42.150;24.734;2022-11-18T14:22:01;126.57;;;50.97;;
6834;SDS011;3455;42.150;24.734;2022-11-18T14:27:53;137.30;;;53.87;;
6834;SDS011;3455;42.150;24.734;2022-11-18T14:30:25;134.97;;;51.70;;
6834;SDS011;3455;42.150;24.734;2022-11-18T14:33:14;157.83;;;54.83;;
6834;SDS011;3455;42.150;24.734;2022-11-18T14:39:10;150.23;;;54.60;;
6834;SDS011;3455;42.150;24.734;2022-11-18T14:41:38;145.53;;;51.27;;
6834;SDS011;3455;42.150;24.734;2022-11-18T14:44:16;150.20;;;53.67;;
6834;SDS011;3455;42.150;24.734;2022-11-18T14:46:44;146.63;;;52.83;;
6834;SDS011;3455;42.150;24.734;2022-11-18T14:49:13;171.13;;;55.37;;
6834;SDS011;3455;42.150;24.734;2022-11-18T14:51:43;154.93;;;56.40;;
6834;SDS011;3455;42.150;24.734;2022-11-18T14:54:11;151.07;;;55.57;;
6834;SDS011;3455;42.150;24.734;2022-11-18T14:56:39;171.10;;;55.37;;
6834;SDS011;3455;42.150;24.734;2022-11-18T14:59:06;164.47;;;55.40;;
6834;SDS011;3455;42.150;24.734;2022-11-18T15:01:36;154.77;;;52.47;;
6834;SDS011;3455;42.150;24.734;2022-11-18T15:04:03;149.87;;;52.43;;
6834;SDS011;3455;42.150;24.734;2022-11-18T15:06:30;153.60;;;52.23;;
6834;SDS011;3455;42.150;24.734;2022-11-18T15:08:57;137.57;;;53.60;;
6834;SDS011;3455;42.150;24.734;2022-11-18T15:11:24;128.60;;;48.20;;
6834;SDS011;3455;42.150;24.734;2022-11-18T15:13:50;132.77;;;51.37;;
6834;SDS011;3455;42.150;24.734;2022-11-18T15:16:18;124.23;;;49.70;;
6834;SDS011;3455;42.150;24.734;2022-11-18T15:18:48;127.03;;;50.67;;
6834;SDS011;3455;42.150;24.734;2022-11-18T15:21:16;132.60;;;50.27;;
6834;SDS011;3455;42.150;24.734;2022-11-18T15:23:43;123.07;;;50.87;;
6834;SDS011;3455;42.150;24.734;2022-11-18T15:26:13;117.07;;;49.47;;
6834;SDS011;3455;42.150;24.734;2022-11-18T15:28:44;122.50;;;49.97;;
6834;SDS011;3455;42.150;24.734;2022-11-18T15:34:33;110.27;;;47.33;;
6834;SDS011;3455;42.150;24.734;2022-11-18T15:40:21;123.10;;;50.90;;
6834;SDS011;3455;42.150;24.734;2022-11-18T15:42:48;125.17;;;50.53;;
6834;SDS011;3455;42.150;24.734;2022-11-18T15:45:15;115.63;;;47.17;;
6834;SDS011;3455;42.150;24.734;2022-11-18T15:47:42;117.23;;;48.47;;
6834;SDS011;3455;42.150;24.734;2022-11-18T15:50:10;112.50;;;49.20;;
6834;SDS011;3455;42.150;24.734;2022-11-18T15:52:37;109.37;;;46.50;;
6834;SDS011;3455;42.150;24.734;2022-11-18T15:55:04;109.73;;;46.53;;
6834;SDS011;3455;42.150;24.734;2022-11-18T15:57:31;113.57;;;46.70;;
6834;SDS011;3455;42.150;24.734;2022-11-18T15:59:58;122.97;;;48.17;;
6834;SDS011;3455;42.150;24.734;2022-11-18T16:02:24;113.97;;;48.40;;
6834;SDS011;3455;42.150;24.734;2022-11-18T16:04:51;110.80;;;47.40;;
6834;SDS011;3455;42.150;24.734;2022-11-18T16:07:19;111.67;;;47.43;;
6834;SDS011;3455;42.150;24.734;2022-11-18T16:09:46;109.57;;;47.77;;
6834;SDS011;3455;42.150;24.734;2022-11-18T16:12:38;119.27;;;54.87;;
6834;SDS011;3455;42.150;24.734;2022-11-18T16:15:15;122.63;;;53.83;;
6834;SDS011;3455;42.150;24.734;2022-11-18T16:18:00;145.00;;;61.07;;
6834;SDS011;3455;42.150;24.734;2022-11-18T16:20:27;118.27;;;55.80;;
6834;SDS011;3455;42.150;24.734;2022-11-18T16:22:55;126.30;;;52.40;;
6834;SDS011;3455;42.150;24.734;2022-11-18T16:25:23;127.17;;;52.07;;
6834;SDS011;3455;42.150;24.734;2022-11-18T16:27:51;126.30;;;51.40;;
6834;SDS011;3455;42.150;24.734;2022-11-18T16:30:18;102.30;;;48.20;;
6834;SDS011;3455;42.150;24.734;2022-11-18T16:33:03;130.83;;;52.10;;
6834;SDS011;3455;42.150;24.734;2022-11-18T16:35:30;120.83;;;53.47;;
6834;SDS011;3455;42.150;24.734;2022-11-18T16:37:59;147.77;;;59.83;;
6834;SDS011;3455;42.150;24.734;2022-11-18T16:40:26;135.30;;;61.80;;
6834;SDS011;3455;42.150;24.734;2022-11-18T16:42:52;147.43;;;57.33;;
6834;SDS011;3455;42.150;24.734;2022-11-18T16:45:19;120.97;;;52.70;;
6834;SDS011;3455;42.150;24.734;2022-11-18T16:47:46;129.50;;;55.73;;